• Join FlightAware (Why Join?)
  • Login
  • US Flag 
06:14PM EDT


 

Airport Tracker/Info


-or-


 

Live Flight TrackerFlight Track Log ✈ N20CJ ✈ 02-Jul-2013 ✈ KTUS - KTOA

Flight Track Log - Related Links

Times and Time Zones

All times are in EDT time to prevent confusion due to time zone crossing. See the N20CJ flight status page for this flight to view local times or setup timezone preferences in your user account.

Time Position Orientation Groundspeed Altitude Reporting Facility
EDT Latitude Longitude Course Direction KTS MPH feet Rate Location/Type
03:58PM 32.1008 -110.9556 295° West 100 115 3,600  Level Albuquerque Center
04:00PM 32.1194 -110.9916 292° West  Level FlightAware Approximate
04:00PM 32.1222 -111.0103 292° West 110 127 4,200  Level Albuquerque Center
04:01PM 32.1261 -111.0294 283° West 106 122 4,500 420 Climbing Albuquerque Center
04:01PM 32.1319 -111.0492 289° West 108 124 4,800 360 Climbing Albuquerque Center
04:02PM 32.1419 -111.0819 290° West 108 124 5,200 240 Climbing Albuquerque Center
04:03PM 32.1547 -111.1133 296° West 108 124 5,400 360 Climbing Albuquerque Center
04:04PM 32.1708 -111.1447 301° West 110 127 6,000 480 Climbing Albuquerque Center
04:05PM 32.1794 -111.1850 284° West 107 123 6,400 300 Climbing Albuquerque Center
04:07PM 32.1867 -111.2208 283° West 108 124 6,700 300 Climbing Albuquerque Center
04:08PM 32.1942 -111.2569 284° West 110 127 7,100 300 Climbing Albuquerque Center
04:09PM 32.1967 -111.2939 275° West 112 129 7,400 300 Climbing Albuquerque Center
04:10PM 32.2044 -111.3269 286° West 108 124 7,800 300 Climbing Albuquerque Center
04:11PM 32.2172 -111.3592 295° West 108 124 8,100 300 Climbing Albuquerque Center
04:12PM 32.2314 -111.3897 299° West 107 123 8,500 240 Climbing Albuquerque Center
04:13PM 32.2436 -111.4292 290° West 109 125 8,700 180 Climbing Albuquerque Center
04:14PM 32.2500 -111.4642 282° West 110 127 8,900 240 Climbing Albuquerque Center
04:15PM 32.2617 -111.4981 292° West 110 127 9,200 240 Climbing Albuquerque Center
04:16PM 32.2678 -111.5344 281° West 112 129 9,400 180 Climbing Albuquerque Center
04:17PM 32.2744 -111.5708 282° West 113 130 9,600 240 Climbing Albuquerque Center
04:18PM 32.2872 -111.6081 292° West 109 125 9,900 240 Climbing Albuquerque Center
04:19PM 32.2969 -111.6428 288° West 112 129 10,100 120 Climbing Albuquerque Center
04:20PM 32.3086 -111.6756 293° West 110 127 10,200 120 Climbing Albuquerque Center
04:21PM 32.3236 -111.7056 301° West 107 123 10,400 60 Climbing Albuquerque Center
04:22PM 32.3525 -111.7136 347° North 104 120 10,400  Level Albuquerque Center
04:23PM 32.3875 -111.7167 356° North 113 130 10,400  Level Albuquerque Center
04:24PM 32.4200 -111.7194 356° North 117 135 10,500  Climbing Albuquerque Center
04:25PM 32.4442 -111.7419 322° Northwest 116 133 10,400 -60 Descending Albuquerque Center
04:26PM 32.4619 -111.7717 305° West 112 129 10,400  Level Albuquerque Center
04:27PM 32.4828 -111.8019 309° West 115 132 10,400 -60 Level Albuquerque Center
04:28PM 32.5061 -111.8375 308° West 114 131 10,300 -60 Descending Albuquerque Center
04:29PM 32.5256 -111.8678 307° West 115 132 10,300 120 Level Albuquerque Center
04:30PM 32.5444 -111.8953 309° West 110 127 10,600 120 Climbing Albuquerque Center
04:31PM 32.5622 -111.9219 308° West 104 120 10,600  Level Albuquerque Center
04:32PM 32.5814 -111.9536 306° West 113 130 10,600  Level Albuquerque Center
04:33PM 32.6003 -111.9856 305° West 117 135 10,600 -60 Level Albuquerque Center
04:34PM 32.6206 -112.0183 306° West 121 139 10,500 -300 Descending Albuquerque Center
04:35PM 32.6408 -112.0494 308° West 119 137 10,000 -720 Descending Albuquerque Center
04:36PM 32.6703 -112.0992 305° West 145 167 9,100 -780 Descending Albuquerque Center
04:37PM 32.6942 -112.1319 311° West 138 159 8,500 -360 Descending Albuquerque Center
04:38PM 32.7200 -112.1656 312° West 137 158 8,400  Descending Albuquerque Center
04:40PM 32.7353 -112.2039 301° West  Level FlightAware Approximate
04:40PM 32.7625 -112.2242 301° West 110 127 8,500  Level Albuquerque Center
04:41PM 32.7761 -112.2408 314° West 112 129 8,400  Descending Albuquerque Center
04:42PM 32.7961 -112.2686 311° West 113 130 8,500  Climbing Albuquerque Center
04:43PM 32.8078 -112.3089 289° West 121 139 8,400 -60 Descending Albuquerque Center
04:44PM 32.8183 -112.3439 290° West 112 129 8,400  Level Albuquerque Center
04:45PM 32.8300 -112.3658 302° West 116 133 8,400  Level Albuquerque Center
04:46PM 32.8472 -112.4011 300° West 120 138 8,400  Level Albuquerque Center
04:47PM 32.8597 -112.4386 292° West 122 140 8,500  Climbing Albuquerque Center
04:48PM 32.8761 -112.4819 294° West 120 138 8,500  Level Albuquerque Center
04:49PM 32.8914 -112.5253 293° West 121 139 8,500 -60 Level Albuquerque Center
04:50PM 32.9058 -112.5542 301° West 124 143 8,400 -60 Descending Albuquerque Center
04:51PM 32.9194 -112.5917 293° West 124 143 8,400  Level Albuquerque Center
04:52PM 32.9347 -112.6275 297° West 122 140 8,400  Level Albuquerque Center
04:53PM 32.9472 -112.6642 292° West 121 139 8,500  Climbing Albuquerque Center
04:54PM 32.9611 -112.7003 295° West 121 139 8,500  Level Albuquerque Center
04:55PM 32.9661 -112.7547 276° West 125 144 8,500 -60 Level Albuquerque Center
04:56PM 32.9719 -112.7906 281° West 126 145 8,400  Descending Albuquerque Center
04:57PM 32.9819 -112.8258 289° West 118 136 8,500  Climbing Albuquerque Center
04:58PM 32.9867 -112.8644 278° West 116 133 8,400 -60 Descending Albuquerque Center
04:59PM 32.9917 -112.9069 278° West 125 144 8,400  Level Albuquerque Center
05:00PM 33.0072 -112.9442 296° West 125 144 8,400  Level Albuquerque Center
05:01PM 33.0297 -112.9744 312° West 123 142 8,400 -60 Level Albuquerque Center
05:02PM 33.0636 -113.0044 323° Northwest 126 145 8,300 -60 Descending Albuquerque Center
05:03PM 33.0864 -113.0350 312° West 125 144 8,300  Level Albuquerque Center
05:04PM 33.1072 -113.0667 308° West 121 139 8,300  Level Albuquerque Center
05:05PM 33.1283 -113.0964 310° West 119 137 8,300  Level Albuquerque Center
05:06PM 33.1494 -113.1278 309° West 121 139 8,300  Level Albuquerque Center
05:07PM 33.1711 -113.1597 309° West 123 142 8,300  Level Albuquerque Center
05:08PM 33.1919 -113.1900 309° West 119 137 8,400  Climbing Albuquerque Center
05:09PM 33.2186 -113.2308 308° West 126 145 8,300 -60 Descending Albuquerque Center
05:10PM 33.2397 -113.2628 308° West 126 145 8,300  Level Albuquerque Center
05:11PM 33.2631 -113.2931 313° West 124 143 8,300  Level Albuquerque Center
05:12PM 33.2836 -113.3281 305° West 129 148 8,300  Level Albuquerque Center
05:13PM 33.2956 -113.3664 290° West 125 144 8,300  Level Albuquerque Center
05:14PM 33.3092 -113.4025 294° West 121 139 8,300  Level Albuquerque Center
05:16PM 33.3228 -113.4414 293° West 125 144 8,300  Level Albuquerque Center
05:17PM 33.3386 -113.4808 296° West 130 150 8,300  Level Albuquerque Center
05:18PM 33.3536 -113.5269 291° West 125 144 8,300  Level Albuquerque Center
05:19PM 33.3644 -113.5669 288° West 126 145 8,400  Climbing Albuquerque Center
05:20PM 33.3769 -113.6042 292° West 122 140 8,400 -60 Level Albuquerque Center
05:21PM 33.3903 -113.6397 294° West 119 137 8,300 -60 Descending Albuquerque Center
05:22PM 33.4025 -113.6783 291° West 121 139 8,300  Level Albuquerque Center
05:23PM 33.4114 -113.7183 285° West 123 142 8,400  Climbing Albuquerque Center
05:24PM 33.4189 -113.7606 282° West 125 144 8,300 -60 Descending Albuquerque Center
05:25PM 33.4278 -113.8086 283° West 125 144 8,300  Level Albuquerque Center
05:26PM 33.4381 -113.8472 288° West 124 143 8,300  Level Albuquerque Center
05:27PM 33.4486 -113.8878 287° West 126 145 8,300  Level Albuquerque Center
05:28PM 33.4592 -113.9283 287° West 127 146 8,300  Level Albuquerque Center
05:29PM 33.4689 -113.9692 286° West 127 146 8,300  Level Albuquerque Center
05:30PM 33.4794 -114.0114 287° West 129 148 8,300  Level Albuquerque Center
05:31PM 33.4892 -114.0517 286° West 129 148 8,300  Level Albuquerque Center
05:32PM 33.4986 -114.0928 285° West 128 147 8,300  Level Albuquerque Center
05:33PM 33.5075 -114.1425 282° West 127 146 8,300  Level Albuquerque Center
05:34PM 33.5133 -114.1844 279° West 127 146 8,300  Level Albuquerque Center
05:35PM 33.5203 -114.2239 282° West 125 144 8,300  Level Albuquerque Center
05:36PM 33.5267 -114.2633 281° West 122 140 8,300  Level Albuquerque Center
05:37PM 33.5342 -114.3050 282° West 125 144 8,400  Climbing Albuquerque Center
05:38PM 33.5406 -114.3475 280° West 126 145 8,300 -60 Descending Albuquerque Center
05:39PM 33.5478 -114.3878 282° West 128 147 8,300  Level Albuquerque Center
05:40PM 33.5567 -114.4308 284° West 126 145 8,300  Level Los Angeles Center
05:41PM 33.5628 -114.4739 280° West 131 151 8,300  Level Los Angeles Center
05:42PM 33.5692 -114.5136 281° West 124 143 8,300  Level Los Angeles Center
05:43PM 33.5783 -114.5567 284° West 133 153 8,300  Level Los Angeles Center
05:44PM 33.5842 -114.5994 279° West 132 152 8,300  Level Los Angeles Center
05:45PM 33.5928 -114.6528 281° West 134 154 8,300  Level Los Angeles Center
05:46PM 33.5914 -114.6953 268° West 130 150 8,300  Level Los Angeles Center
05:47PM 33.5944 -114.7383 275° West 129 148 8,300  Level Los Angeles Center
05:48PM 33.5989 -114.7797 277° West 127 146 8,300  Level Los Angeles Center
05:49PM 33.6003 -114.8233 272° West 130 150 8,300  Level Los Angeles Center
05:50PM 33.6056 -114.8714 278° West 129 148 8,300  Level Los Angeles Center
05:51PM 33.6067 -114.9067 272° West 125 144 8,300  Level Los Angeles Center
05:52PM 33.6106 -114.9553 276° West 128 147 8,300  Level Los Angeles Center
05:53PM 33.6150 -114.9997 277° West 128 147 8,300  Level Los Angeles Center
05:54PM 33.6167 -115.0433 273° West 130 150 8,300  Level Los Angeles Center
05:56PM 33.6208 -115.0881 276° West 134 154 8,300  Level Los Angeles Center
05:57PM 33.6231 -115.1308 274° West 131 151 8,300  Level Los Angeles Center
05:58PM 33.6258 -115.1814 274° West 128 147 8,300 120 Level Los Angeles Center
05:59PM 33.6289 -115.2231 275° West 127 146 8,600 120 Climbing Los Angeles Center
06:00PM 33.6308 -115.2642 273° West 125 144 8,600  Level Los Angeles Center
06:01PM 33.6356 -115.3089 277° West 129 148 8,600  Level Los Angeles Center
06:02PM 33.6375 -115.3517 273° West 130 150 8,600  Level Los Angeles Center
06:03PM 33.6400 -115.3950 274° West 130 150 8,600  Level Los Angeles Center
06:04PM 33.6436 -115.4475 275° West 131 151 8,600  Level Los Angeles Center
06:05PM 33.6469 -115.4911 275° West 131 151 8,600  Level Los Angeles Center
06:06PM 33.6494 -115.5328 274° West 129 148 8,600 -60 Level Los Angeles Center
06:07PM 33.6525 -115.5750 275° West 128 147 8,500 -60 Descending Los Angeles Center
06:08PM 33.6553 -115.6194 274° West 130 150 8,500  Level Los Angeles Center
06:09PM 33.6581 -115.6639 274° West 132 152 8,500  Level Los Angeles Center
06:10PM 33.6611 -115.7172 274° West 133 153 8,500 240 Level Los Angeles Center
06:11PM 33.6647 -115.7661 275° West 129 148 9,100 480 Climbing Los Angeles Center
06:12PM 33.6667 -115.8003 274° West 119 137 9,500 420 Climbing Los Angeles Center
06:13PM 33.6689 -115.8336 275° West 110 127 10,000 420 Climbing Los Angeles Center
06:14PM 33.6711 -115.8672 275° West 104 120 10,400 240 Climbing Los Angeles Center
06:15PM 33.6722 -115.9028 272° West 106 122 10,500  Climbing Los Angeles Center
06:16PM 33.6767 -115.9558 276° West 128 147 10,500  Level Los Angeles Center
06:17PM 33.6811 -116.0003 277° West 133 153 10,500  Level Los Angeles Center
06:18PM 33.6942 -116.0419 291° West 134 154 10,500  Level Los Angeles Center
06:19PM 33.7158 -116.0775 306° West 135 155 10,500  Level Los Angeles Center
06:21PM 33.7189 -116.1203 275° West 131 151 10,500  Level Los Angeles Center
06:22PM 33.7256 -116.1742 278° West 134 154 10,500  Level Los Angeles Center
06:23PM 33.7350 -116.2264 282° West 134 154 10,500  Level Los Angeles Center
06:24PM 33.7483 -116.2675 291° West 133 153 10,500  Level Los Angeles Center
06:25PM 33.7622 -116.3081 292° West 133 153 10,500  Level Los Angeles Center
06:26PM 33.7758 -116.3489 292° West 133 153 10,500  Level Los Angeles Center
06:27PM 33.7875 -116.3900 289° West 131 151 10,500  Level Los Angeles Center
06:28PM 33.8006 -116.4317 291° West 132 152 10,500  Level Los Angeles Center
06:29PM 33.8169 -116.4814 292° West 133 153 10,500  Level Los Angeles Center
06:30PM 33.8300 -116.5228 291° West 133 153 10,500  Level Los Angeles Center
06:31PM 33.8431 -116.5631 291° West 132 152 10,500  Level Los Angeles Center
06:32PM 33.8564 -116.6053 291° West 134 154 10,500 60 Level Los Angeles Center
06:33PM 33.8711 -116.6467 293° West 134 154 10,700 60 Climbing Los Angeles Center
06:34PM 33.8850 -116.6892 291° West 137 158 10,700  Level Los Angeles Center
06:35PM 33.8969 -116.7403 286° West 135 155 10,700  Level Los Angeles Center
06:36PM 33.8925 -116.7886 264° West 142 163 10,700  Level Los Angeles Center
06:37PM 33.8928 -116.8336 270° West 139 160 10,700  Level Los Angeles Center
06:38PM 33.9000 -116.8833 280° West 136 157 10,700  Level Southern California TRACON
06:39PM 33.9000 -116.9333 270° West 137 158 10,700  Level Southern California TRACON
06:40PM 33.9000 -116.9833 270° West 136 157 10,700 -120 Level Southern California TRACON
06:41PM 33.9000 -117.0333 270° West 143 165 10,500 -60 Descending Southern California TRACON
06:42PM 33.9000 -117.0667 270° West 137 158 10,600  Climbing Southern California TRACON
06:43PM 33.9000 -117.1167 270° West 137 158 10,500 -60 Descending Southern California TRACON
06:44PM 33.9000 -117.1667 270° West 140 161 10,500  Level Southern California TRACON
06:45PM 33.9000 -117.2167 270° West 139 160 10,500  Level Southern California TRACON
06:46PM 33.9000 -117.2500 270° West 138 159 10,500  Level Southern California TRACON
06:47PM 33.9000 -117.3000 270° West 139 160 10,500 -300 Level Southern California TRACON
06:48PM 33.9167 -117.3500 292° West 157 181 10,000 -600 Descending Southern California TRACON
06:49PM 33.9167 -117.4000 270° West 155 178 9,400 -600 Descending Southern California TRACON
06:50PM 33.9167 -117.4500 270° West 153 176 8,800 -600 Descending Southern California TRACON
06:51PM 33.9167 -117.5000 270° West 151 174 8,200 -600 Descending Southern California TRACON
06:52PM 33.9167 -117.5500 270° West 153 176 7,600 -600 Descending Southern California TRACON
06:53PM 33.9000 -117.6000 248° West 150 173 7,000 -600 Descending Southern California TRACON
06:54PM 33.9000 -117.6500 270° West 145 167 6,400 -600 Descending Southern California TRACON
06:55PM 33.8833 -117.7000 248° West 145 167 5,900 -600 Descending Southern California TRACON
06:56PM 33.8833 -117.7500 270° West 145 167 5,200 -720 Descending Southern California TRACON
06:57PM 33.8833 -117.8000 270° West 142 163 4,500 -360 Descending Southern California TRACON
06:58PM 33.8667 -117.8333 239° Southwest 124 143 4,500  Level Southern California TRACON
06:59PM 33.8667 -117.8667 270° West 122 140 4,500  Level Southern California TRACON
07:00PM 33.8667 -117.9167 270° West 125 144 4,500  Level Southern California TRACON
07:01PM 33.8333 -117.9500 220° Southwest 128 147 4,500  Level Southern California TRACON
07:02PM 33.8167 -117.9833 239° Southwest 123 142 4,500 -120 Level Southern California TRACON
07:03PM 33.7833 -118.0167 220° Southwest 132 152 4,300 -300 Descending Southern California TRACON
07:04PM 33.7667 -118.0500 239° Southwest 123 142 4,000 -480 Descending Southern California TRACON
07:05PM 33.7500 -118.0833 239° Southwest 138 159 3,400 -720 Descending Southern California TRACON
07:06PM 33.7333 -118.1333 248° West 139 160 2,600 -720 Descending Southern California TRACON
07:07PM 33.7050 -118.1617 220° Southwest 139 160 2,000 -360 Descending Los Angeles Center
07:08PM 33.7197 -118.2022 294° West 136 157 1,900  Descending Los Angeles Center
07:10PM 33.7389 -118.2406 301° West 135 155 2,000 -180 Climbing Los Angeles Center
07:11PM 33.7639 -118.2792 308° West 128 147 1,500 -660 Descending Los Angeles Center
07:12PM 33.7839 -118.3097 308° West 112 129 700 -660 Descending Los Angeles Center
07:13PM 33.7997 -118.3322 310° West 94 108 100 -540 Descending Los Angeles Center
07:15PM 33.8000 -118.3333 270° West  Level FlightAware Approximate